createdAt,value
2022-08-29T00:01:47.758Z,12.60
2022-08-29T00:04:14.122Z,15.00
2022-08-29T00:06:40.658Z,20.65
2022-08-29T00:09:07.131Z,11.90
2022-08-29T00:11:33.672Z,14.57
2022-08-29T00:14:00.040Z,10.98
2022-08-29T00:16:26.449Z,9.15
2022-08-29T00:18:52.804Z,7.60
2022-08-29T00:21:19.102Z,7.25
2022-08-29T00:23:45.458Z,13.05
2022-08-29T00:26:11.762Z,11.93
2022-08-29T00:28:38.246Z,11.05
2022-08-29T00:31:04.569Z,9.00
2022-08-29T00:33:31.047Z,18.98
2022-08-29T00:35:57.388Z,15.18
2022-08-29T00:38:27.688Z,8.98
2022-08-29T00:40:54.771Z,10.05
2022-08-29T00:43:21.284Z,13.32
2022-08-29T00:45:47.658Z,10.00
2022-08-29T00:48:14.100Z,13.02
2022-08-29T00:50:40.519Z,10.73
2022-08-29T00:53:06.934Z,10.25
2022-08-29T00:55:33.454Z,14.15
2022-08-29T00:57:59.928Z,10.15
2022-08-29T01:00:26.426Z,9.73
2022-08-29T01:02:52.838Z,19.85
2022-08-29T01:05:19.189Z,8.93
2022-08-29T01:07:45.587Z,12.82
2022-08-29T01:10:13.385Z,9.48
2022-08-29T01:12:40.408Z,13.77
2022-08-29T01:15:06.881Z,8.20
2022-08-29T01:17:33.455Z,9.32
2022-08-29T01:19:59.852Z,11.30
2022-08-29T01:22:26.336Z,15.50
2022-08-29T01:24:52.953Z,10.45
2022-08-29T01:27:19.464Z,9.40
2022-08-29T01:29:45.928Z,13.77
2022-08-29T01:32:16.860Z,13.30
2022-08-29T01:34:43.526Z,9.77
2022-08-29T01:37:09.849Z,8.95
2022-08-29T01:39:36.174Z,10.73
2022-08-29T01:42:02.666Z,8.35
2022-08-29T01:44:28.991Z,12.38
2022-08-29T01:46:57.954Z,12.23
2022-08-29T01:49:28.314Z,12.13
2022-08-29T01:51:54.640Z,18.02
2022-08-29T01:54:20.962Z,10.23
2022-08-29T01:56:47.250Z,14.48
2022-08-29T01:59:13.683Z,11.10
2022-08-29T02:01:40.387Z,14.45
2022-08-29T02:04:06.819Z,14.60
2022-08-29T02:06:33.286Z,10.98
2022-08-29T02:08:59.607Z,11.55
2022-08-29T02:11:25.965Z,11.73
2022-08-29T02:13:52.276Z,9.15
2022-08-29T02:16:18.678Z,14.82
2022-08-29T02:18:44.991Z,7.25
2022-08-29T02:21:11.525Z,11.57
2022-08-29T02:23:37.803Z,14.02
2022-08-29T02:26:04.066Z,9.70
2022-08-29T02:28:30.411Z,15.13
2022-08-29T02:30:56.997Z,16.30
2022-08-29T02:33:23.390Z,20.33
2022-08-29T02:35:49.657Z,9.75
2022-08-29T02:38:16.345Z,13.70
2022-08-29T02:40:42.745Z,13.80
2022-08-29T02:43:09.041Z,11.52
2022-08-29T02:45:35.490Z,12.20
2022-08-29T02:48:01.813Z,9.52
2022-08-29T02:50:28.257Z,14.40
2022-08-29T02:52:54.662Z,10.48
2022-08-29T02:55:21.103Z,13.25
2022-08-29T02:57:47.448Z,14.50
2022-08-29T03:00:13.697Z,13.40
2022-08-29T03:02:40.041Z,6.63
2022-08-29T03:05:06.352Z,8.60
2022-08-29T03:07:32.660Z,14.55
2022-08-29T03:09:58.946Z,13.48
2022-08-29T03:12:25.325Z,12.00
2022-08-29T03:14:54.544Z,11.27
2022-08-29T03:17:20.899Z,13.38
2022-08-29T03:19:47.373Z,13.65
2022-08-29T03:22:13.681Z,12.63
2022-08-29T03:24:40.128Z,15.02
2022-08-29T03:27:06.405Z,12.43
2022-08-29T03:29:32.747Z,10.45
2022-08-29T03:31:59.237Z,15.82
2022-08-29T03:34:25.575Z,12.70
2022-08-29T03:36:52.004Z,10.43
2022-08-29T03:39:18.304Z,16.88
2022-08-29T03:41:44.606Z,26.98
2022-08-29T03:44:10.882Z,12.05
2022-08-29T03:46:37.512Z,9.50
2022-08-29T03:49:04.005Z,23.70
2022-08-29T03:51:30.399Z,14.65
2022-08-29T03:53:56.927Z,11.00
2022-08-29T03:56:23.273Z,15.25
2022-08-29T03:58:53.127Z,12.35
2022-08-29T04:01:19.949Z,16.40
2022-08-29T04:03:46.824Z,11.63
2022-08-29T04:06:13.294Z,10.70
2022-08-29T04:08:39.631Z,12.90
2022-08-29T04:11:05.952Z,13.68
2022-08-29T04:13:32.425Z,14.45
2022-08-29T04:15:58.774Z,10.70
2022-08-29T04:18:25.214Z,9.32
2022-08-29T04:20:51.517Z,13.30
2022-08-29T04:23:17.810Z,11.50
2022-08-29T04:25:44.276Z,12.05
2022-08-29T04:28:10.708Z,9.27
2022-08-29T04:30:37.107Z,10.35
2022-08-29T04:33:03.390Z,10.85
2022-08-29T04:35:29.741Z,15.00
2022-08-29T04:37:56.127Z,12.90
2022-08-29T04:40:22.506Z,12.93
2022-08-29T04:42:49.350Z,12.57
2022-08-29T04:45:15.662Z,12.35
2022-08-29T04:47:41.997Z,12.63
2022-08-29T04:50:08.290Z,14.75
2022-08-29T04:52:34.783Z,13.40
2022-08-29T04:55:01.254Z,11.88
2022-08-29T04:57:27.488Z,15.18
2022-08-29T04:59:54.017Z,14.75
2022-08-29T05:02:20.389Z,15.13
2022-08-29T05:04:46.780Z,11.30
2022-08-29T05:07:13.065Z,13.52
2022-08-29T05:09:39.520Z,10.98
2022-08-29T05:12:10.064Z,14.43
2022-08-29T05:14:36.637Z,25.23
2022-08-29T05:17:02.961Z,11.55
2022-08-29T05:19:29.268Z,16.48
2022-08-29T05:22:00.939Z,11.73
2022-08-29T05:24:27.247Z,13.52
2022-08-29T05:26:53.824Z,12.02
2022-08-29T05:29:20.119Z,12.25
2022-08-29T05:31:46.575Z,16.13
2022-08-29T05:34:34.718Z,14.68
2022-08-29T05:36:59.160Z,16.80
2022-08-29T05:39:25.450Z,11.63
2022-08-29T05:41:51.941Z,12.73
2022-08-29T05:44:18.244Z,30.38
2022-08-29T05:46:44.665Z,13.85
2022-08-29T05:49:11.009Z,14.05
2022-08-29T05:51:39.684Z,18.73
2022-08-29T05:54:06.278Z,18.10
2022-08-29T05:56:32.584Z,15.68
2022-08-29T05:58:58.924Z,21.85
2022-08-29T06:01:25.846Z,14.88
2022-08-29T06:03:52.410Z,22.90
2022-08-29T06:06:18.939Z,17.48
2022-08-29T06:08:45.596Z,16.95
2022-08-29T06:11:12.018Z,20.05
2022-08-29T06:13:38.362Z,16.98
2022-08-29T06:16:07.418Z,18.10
2022-08-29T06:18:35.975Z,24.33
2022-08-29T06:21:05.096Z,10.88
2022-08-29T06:23:31.452Z,16.40
2022-08-29T06:25:57.814Z,12.82
2022-08-29T06:28:24.283Z,18.63
2022-08-29T06:30:50.849Z,16.65
2022-08-29T06:33:18.761Z,14.90
2022-08-29T06:35:45.255Z,16.60
2022-08-29T06:38:14.089Z,15.73
2022-08-29T06:40:40.681Z,13.63
2022-08-29T06:43:07.131Z,13.63
2022-08-29T06:45:33.444Z,12.35
2022-08-29T06:47:59.752Z,15.73
2022-08-29T06:50:26.084Z,18.67
2022-08-29T06:52:52.601Z,11.18
2022-08-29T06:55:21.575Z,18.17
2022-08-29T06:57:50.714Z,20.52
2022-08-29T07:00:21.392Z,15.73
2022-08-29T07:02:52.463Z,16.95
2022-08-29T07:05:19.248Z,23.92
2022-08-29T07:07:47.683Z,15.52
2022-08-29T07:10:16.542Z,14.75
2022-08-29T07:12:46.365Z,18.30
2022-08-29T07:15:13.555Z,10.88
2022-08-29T07:17:40.094Z,15.65
2022-08-29T07:20:06.511Z,15.32
2022-08-29T07:22:32.845Z,25.92
2022-08-29T07:24:59.236Z,15.90
2022-08-29T07:27:25.801Z,23.73
2022-08-29T07:29:52.301Z,12.60
2022-08-29T07:32:21.665Z,14.05
2022-08-29T07:34:54.101Z,46.95
2022-08-29T07:37:22.353Z,12.00
2022-08-29T07:39:48.607Z,20.33
2022-08-29T07:42:14.859Z,15.07
2022-08-29T07:44:41.178Z,17.42
2022-08-29T07:47:07.465Z,14.07
2022-08-29T07:49:41.142Z,17.63
2022-08-29T07:52:09.427Z,16.35
2022-08-29T07:54:35.740Z,18.25
2022-08-29T07:57:02.038Z,17.33
2022-08-29T07:59:28.367Z,15.88
2022-08-29T08:01:54.722Z,21.00
2022-08-29T08:04:21.153Z,16.98
2022-08-29T08:06:50.589Z,20.95
2022-08-29T08:09:16.894Z,15.75
2022-08-29T08:11:43.190Z,23.27
2022-08-29T08:14:09.504Z,27.05
2022-08-29T08:16:36.032Z,20.02
2022-08-29T08:19:02.316Z,14.32
2022-08-29T08:21:28.559Z,13.00
2022-08-29T08:23:55.047Z,16.45
2022-08-29T08:26:21.305Z,17.52
2022-08-29T08:28:47.646Z,20.13
2022-08-29T08:31:14.413Z,19.10
2022-08-29T08:33:40.849Z,16.88
2022-08-29T08:36:07.171Z,13.95
2022-08-29T08:38:33.527Z,14.82
2022-08-29T08:40:59.816Z,12.27
2022-08-29T08:43:26.837Z,12.60
2022-08-29T08:45:53.345Z,11.45
2022-08-29T08:48:19.718Z,15.73
2022-08-29T08:50:46.018Z,11.35
2022-08-29T08:53:12.363Z,14.02
2022-08-29T08:55:38.664Z,13.73
2022-08-29T08:58:04.966Z,12.23
2022-08-29T09:00:31.267Z,16.40
2022-08-29T09:02:57.693Z,12.85
2022-08-29T09:05:24.019Z,25.73
2022-08-29T09:07:50.491Z,11.85
2022-08-29T09:10:17.211Z,15.80
2022-08-29T09:12:43.445Z,16.30
2022-08-29T09:15:13.846Z,15.05
2022-08-29T09:17:40.495Z,13.07
2022-08-29T09:20:08.718Z,17.35
2022-08-29T09:22:35.584Z,16.17
2022-08-29T09:25:02.000Z,12.00
2022-08-29T09:27:28.349Z,20.25
2022-08-29T09:29:55.471Z,14.90
2022-08-29T09:32:22.713Z,14.02
2022-08-29T09:37:35.654Z,17.73
2022-08-29T09:40:02.179Z,10.02
2022-08-29T09:42:28.502Z,15.77
2022-08-29T09:44:54.803Z,14.75
2022-08-29T09:47:21.082Z,11.70
2022-08-29T09:49:47.505Z,15.25
2022-08-29T09:52:13.979Z,8.38
2022-08-29T09:54:41.253Z,9.93
2022-08-29T09:57:07.847Z,14.52
2022-08-29T09:59:35.323Z,11.38
2022-08-29T10:02:01.905Z,17.20
2022-08-29T10:04:28.507Z,13.75
2022-08-29T10:06:54.804Z,16.30
2022-08-29T10:09:21.216Z,9.85
2022-08-29T10:11:47.477Z,13.82
2022-08-29T10:14:14.504Z,14.88
2022-08-29T10:16:41.094Z,11.75
2022-08-29T10:19:07.503Z,12.25
2022-08-29T10:21:33.737Z,9.30
2022-08-29T10:24:00.099Z,11.55
2022-08-29T10:26:26.601Z,11.82
2022-08-29T10:28:52.880Z,12.07
2022-08-29T10:31:19.240Z,24.27
2022-08-29T10:33:45.569Z,15.27
2022-08-29T10:36:12.001Z,20.05
2022-08-29T10:38:38.359Z,23.65
2022-08-29T10:41:04.895Z,9.73
2022-08-29T10:43:31.210Z,8.93
2022-08-29T10:45:57.506Z,13.85
2022-08-29T10:48:23.812Z,11.65
2022-08-29T10:50:50.100Z,15.63
2022-08-29T10:53:16.391Z,9.45
2022-08-29T10:55:42.896Z,13.38
2022-08-29T10:58:12.586Z,11.98
2022-08-29T11:00:39.283Z,9.25
2022-08-29T11:03:05.606Z,17.20
2022-08-29T11:05:31.871Z,14.48
2022-08-29T11:07:58.108Z,17.05
2022-08-29T11:10:24.459Z,9.15
2022-08-29T11:12:50.818Z,8.65
2022-08-29T11:15:17.154Z,14.52
2022-08-29T11:17:43.698Z,14.40
2022-08-29T11:20:10.566Z,9.27
2022-08-29T11:22:36.853Z,9.68
2022-08-29T11:25:03.285Z,13.77
2022-08-29T11:27:29.725Z,11.05
2022-08-29T11:29:56.199Z,13.80
2022-08-29T11:32:22.482Z,8.65
2022-08-29T11:34:48.794Z,12.57
2022-08-29T11:37:15.140Z,11.00
2022-08-29T11:39:41.523Z,7.53
2022-08-29T11:42:07.831Z,8.95
2022-08-29T11:44:34.383Z,10.45
2022-08-29T11:47:00.918Z,9.77
2022-08-29T11:49:27.424Z,10.00
2022-08-29T11:51:53.768Z,11.82
2022-08-29T11:54:20.181Z,16.85
2022-08-29T11:56:46.521Z,11.05
2022-08-29T11:59:12.894Z,10.90
2022-08-29T12:01:39.655Z,10.00
2022-08-29T12:04:06.111Z,10.60
2022-08-29T12:06:32.510Z,6.25
2022-08-29T12:09:02.844Z,12.77
2022-08-29T12:11:30.936Z,10.98
2022-08-29T12:13:57.268Z,7.32
2022-08-29T12:16:23.553Z,11.18
2022-08-29T12:18:49.859Z,15.40
2022-08-29T12:21:16.209Z,11.02
2022-08-29T12:23:42.480Z,15.43
2022-08-29T12:26:21.950Z,9.27
2022-08-29T12:28:49.051Z,10.35
2022-08-29T12:31:15.436Z,10.27
2022-08-29T12:33:41.973Z,10.82
2022-08-29T12:36:08.467Z,12.73
2022-08-29T12:38:38.781Z,12.40
2022-08-29T12:41:08.201Z,14.63
2022-08-29T12:43:34.492Z,9.18
2022-08-29T12:46:00.815Z,10.27
2022-08-29T12:48:27.131Z,11.40
2022-08-29T12:50:53.497Z,8.38
2022-08-29T12:53:19.809Z,13.02
2022-08-29T12:55:46.191Z,9.20
2022-08-29T12:58:12.551Z,16.73
2022-08-29T13:00:38.857Z,9.82
2022-08-29T13:03:09.515Z,10.30
2022-08-29T13:05:41.654Z,6.50
2022-08-29T13:08:12.467Z,10.55
2022-08-29T13:10:39.687Z,9.23
2022-08-29T13:13:05.934Z,8.77
2022-08-29T13:15:33.422Z,13.98
2022-08-29T13:18:00.048Z,6.32
2022-08-29T13:20:26.330Z,6.35
2022-08-29T13:22:52.727Z,10.32
2022-08-29T13:25:19.011Z,8.77
2022-08-29T13:27:45.400Z,7.13
2022-08-29T13:30:11.714Z,10.50
2022-08-29T13:32:38.028Z,8.68
2022-08-29T13:35:04.296Z,8.55
2022-08-29T13:37:30.664Z,15.43
2022-08-29T13:39:56.963Z,9.10
2022-08-29T13:42:25.452Z,8.25
2022-08-29T13:44:51.763Z,11.07
2022-08-29T13:47:18.210Z,10.32
2022-08-29T13:49:45.807Z,8.80
2022-08-29T13:52:14.565Z,8.77
2022-08-29T13:54:40.813Z,5.97
2022-08-29T13:57:08.016Z,6.40
2022-08-29T13:59:35.933Z,8.65
2022-08-29T14:02:10.684Z,14.90
2022-08-29T14:04:39.840Z,7.35
2022-08-29T14:07:07.092Z,9.00
2022-08-29T14:09:33.743Z,8.60
2022-08-29T14:12:00.166Z,9.10
2022-08-29T14:14:26.464Z,6.88
2022-08-29T14:16:52.775Z,7.00
2022-08-29T14:19:19.252Z,5.88
2022-08-29T14:21:45.619Z,7.35
2022-08-29T14:24:11.926Z,6.18
2022-08-29T14:26:38.236Z,10.82
2022-08-29T14:29:04.630Z,10.60
2022-08-29T14:31:30.961Z,6.55
2022-08-29T14:33:57.294Z,9.48
2022-08-29T14:36:25.613Z,9.65
2022-08-29T14:38:53.713Z,10.35
2022-08-29T14:41:20.034Z,8.20
2022-08-29T14:43:46.684Z,11.90
2022-08-29T14:46:12.944Z,7.07
2022-08-29T14:48:39.452Z,8.45
2022-08-29T14:51:06.809Z,8.68
2022-08-29T14:53:37.908Z,6.97
2022-08-29T14:56:44.825Z,9.13
2022-08-29T14:59:08.202Z,4.38
2022-08-29T15:01:34.520Z,6.22
2022-08-29T15:04:00.841Z,7.97
2022-08-29T15:06:27.154Z,9.73
2022-08-29T15:08:53.590Z,6.13
2022-08-29T15:11:19.841Z,6.47
2022-08-29T15:13:46.152Z,6.97
2022-08-29T15:16:12.574Z,5.03
2022-08-29T15:19:37.201Z,6.00
2022-08-29T15:21:25.222Z,15.40
2022-08-29T15:23:51.573Z,8.55
2022-08-29T15:26:17.821Z,9.73
2022-08-29T15:28:44.189Z,4.32
2022-08-29T15:31:10.538Z,9.68
2022-08-29T15:33:36.992Z,8.35
2022-08-29T15:36:03.222Z,6.50
2022-08-29T15:38:29.547Z,4.13
2022-08-29T15:40:55.829Z,6.47
2022-08-29T15:43:22.480Z,6.90
2022-08-29T15:45:48.737Z,5.43
2022-08-29T15:48:16.417Z,6.60
2022-08-29T15:50:43.170Z,5.78
2022-08-29T15:53:09.424Z,3.78
2022-08-29T15:55:35.634Z,3.65
2022-08-29T15:58:01.884Z,8.35
2022-08-29T16:00:30.326Z,4.57
2022-08-29T16:02:57.522Z,8.38
2022-08-29T16:05:23.866Z,5.90
2022-08-29T16:07:50.127Z,8.45
2022-08-29T16:10:16.424Z,6.55
2022-08-29T16:12:42.681Z,4.68
2022-08-29T16:15:09.985Z,8.50
2022-08-29T16:17:36.414Z,5.18
2022-08-29T16:20:02.691Z,11.32
2022-08-29T16:22:29.057Z,6.95
2022-08-29T16:24:55.283Z,4.22
2022-08-29T16:27:21.522Z,6.28
2022-08-29T16:29:47.748Z,5.63
2022-08-29T16:32:14.013Z,4.88
2022-08-29T16:34:40.350Z,8.07
2022-08-29T16:37:06.603Z,7.95
2022-08-29T16:39:33.024Z,6.05
2022-08-29T16:41:59.257Z,13.60
2022-08-29T16:44:25.569Z,7.55
2022-08-29T16:46:51.810Z,17.38
2022-08-29T16:49:18.040Z,2.53
2022-08-29T16:51:44.290Z,3.42
2022-08-29T16:54:10.521Z,4.13
2022-08-29T16:56:36.781Z,2.55
2022-08-29T16:59:03.008Z,2.53
2022-08-29T17:01:29.429Z,1.92
2022-08-29T17:03:55.709Z,3.28
2022-08-29T17:06:21.930Z,3.55
2022-08-29T17:08:48.189Z,2.20
2022-08-29T17:11:14.421Z,3.15
2022-08-29T17:13:40.690Z,2.13
2022-08-29T17:16:06.924Z,3.20
2022-08-29T17:18:33.164Z,4.82
2022-08-29T17:20:59.383Z,4.05
2022-08-29T17:23:25.661Z,1.70
2022-08-29T17:25:51.892Z,2.10
2022-08-29T17:28:27.653Z,2.40
2022-08-29T17:30:53.954Z,3.90
2022-08-29T17:33:20.255Z,2.90
2022-08-29T17:35:46.497Z,3.83
2022-08-29T17:38:12.812Z,3.28
2022-08-29T17:40:40.365Z,2.75
2022-08-29T17:43:08.580Z,3.85
2022-08-29T17:45:34.862Z,2.50
2022-08-29T17:48:01.116Z,1.65
2022-08-29T17:50:27.337Z,4.07
2022-08-29T17:52:53.563Z,1.70
2022-08-29T17:55:19.781Z,1.63
2022-08-29T17:57:46.013Z,3.92
2022-08-29T18:00:12.228Z,4.05
2022-08-29T18:02:38.568Z,2.97
2022-08-29T18:05:04.835Z,2.80
2022-08-29T18:07:31.321Z,3.47
2022-08-29T18:09:59.637Z,4.60
2022-08-29T18:12:25.909Z,4.13
2022-08-29T18:14:52.161Z,3.83
2022-08-29T18:17:18.424Z,5.18
2022-08-29T18:19:44.644Z,5.40
2022-08-29T18:22:10.903Z,4.45
2022-08-29T18:24:37.108Z,4.03
2022-08-29T18:27:03.353Z,5.22
2022-08-29T18:29:29.587Z,7.75
2022-08-29T18:31:55.821Z,4.20
2022-08-29T18:34:22.068Z,6.95
2022-08-29T18:36:48.294Z,7.10
2022-08-29T18:39:14.526Z,7.47
2022-08-29T18:41:40.852Z,4.68
2022-08-29T18:44:07.171Z,3.83
2022-08-29T18:46:33.498Z,5.10
2022-08-29T18:48:59.728Z,4.38
2022-08-29T18:51:26.076Z,6.35
2022-08-29T18:53:52.317Z,3.38
2022-08-29T18:56:18.647Z,2.67
2022-08-29T18:58:45.083Z,4.43
2022-08-29T19:01:11.525Z,5.43
2022-08-29T19:03:37.915Z,4.53
2022-08-29T19:06:04.196Z,8.00
2022-08-29T19:08:30.539Z,3.40
2022-08-29T19:10:56.889Z,5.70
2022-08-29T19:13:25.280Z,4.28
2022-08-29T19:15:51.801Z,6.88
2022-08-29T19:18:18.207Z,4.75
2022-08-29T19:20:44.686Z,3.70
2022-08-29T19:23:11.117Z,4.50
2022-08-29T19:25:37.636Z,5.40
2022-08-29T19:28:04.127Z,3.95
2022-08-29T19:30:30.445Z,3.05
2022-08-29T19:32:56.754Z,9.57
2022-08-29T19:35:23.210Z,8.18
2022-08-29T19:37:49.857Z,6.18
2022-08-29T19:40:16.269Z,6.78
2022-08-29T19:42:42.566Z,14.65
2022-08-29T19:45:09.045Z,7.28
2022-08-29T19:47:35.354Z,6.30
2022-08-29T19:50:01.942Z,9.20
2022-08-29T19:52:28.694Z,6.55
2022-08-29T19:54:55.281Z,14.20
2022-08-29T19:57:21.718Z,5.75
2022-08-29T19:59:48.738Z,5.40
2022-08-29T20:02:15.202Z,8.48
2022-08-29T20:04:41.616Z,8.57
2022-08-29T20:07:08.632Z,7.15
2022-08-29T20:09:34.918Z,10.38
2022-08-29T20:12:01.247Z,7.13
2022-08-29T20:14:27.542Z,6.85
2022-08-29T20:16:56.237Z,11.35
2022-08-29T20:19:22.559Z,9.18
2022-08-29T20:21:49.127Z,5.57
2022-08-29T20:24:15.758Z,5.85
2022-08-29T20:26:42.883Z,5.78
2022-08-29T20:29:09.176Z,4.88
2022-08-29T20:31:35.601Z,6.18
2022-08-29T20:34:02.018Z,3.55
2022-08-29T20:36:28.382Z,7.22
2022-08-29T20:38:54.734Z,4.00
2022-08-29T20:41:21.266Z,6.60
2022-08-29T20:43:47.771Z,4.05
2022-08-29T20:46:14.165Z,3.75
2022-08-29T20:48:40.525Z,10.20
2022-08-29T20:51:06.923Z,3.13
2022-08-29T20:53:33.579Z,2.13
2022-08-29T20:56:00.142Z,5.38
2022-08-29T20:58:26.573Z,2.72
2022-08-29T21:00:55.405Z,5.10
2022-08-29T21:03:21.894Z,6.55
2022-08-29T21:05:48.255Z,2.63
2022-08-29T21:08:14.583Z,4.00
2022-08-29T21:10:41.010Z,4.22
2022-08-29T21:13:07.308Z,4.20
2022-08-29T21:15:33.665Z,4.57
2022-08-29T21:17:59.960Z,4.63
2022-08-29T21:20:26.325Z,2.33
2022-08-29T21:22:52.633Z,3.50
2022-08-29T21:25:18.956Z,8.13
2022-08-29T21:27:45.228Z,2.85
2022-08-29T21:30:11.556Z,2.20
2022-08-29T21:32:38.072Z,1.42
2022-08-29T21:35:04.424Z,5.60
2022-08-29T21:37:30.830Z,4.65
2022-08-29T21:39:57.259Z,3.17
2022-08-29T21:42:23.601Z,2.60
2022-08-29T21:44:50.126Z,2.38
2022-08-29T21:47:17.968Z,2.50
2022-08-29T21:49:44.594Z,4.40
2022-08-29T21:52:10.839Z,4.68
2022-08-29T21:54:37.215Z,2.40
2022-08-29T21:57:03.497Z,2.25
2022-08-29T21:59:29.760Z,4.00
2022-08-29T22:01:56.229Z,4.72
2022-08-29T22:04:28.306Z,6.57
2022-08-29T22:06:55.520Z,7.57
2022-08-29T22:09:22.342Z,6.20
2022-08-29T22:11:48.583Z,5.60
2022-08-29T22:14:14.836Z,5.55
2022-08-29T22:16:41.089Z,6.30
2022-08-29T22:19:07.341Z,8.52
2022-08-29T22:21:33.685Z,6.30
2022-08-29T22:23:59.924Z,3.42
2022-08-29T22:26:26.154Z,3.42
2022-08-29T22:28:52.378Z,9.35
2022-08-29T22:31:18.726Z,2.75
2022-08-29T22:33:45.048Z,5.50
2022-08-29T22:36:11.284Z,3.85
2022-08-29T22:38:37.529Z,5.28
2022-08-29T22:41:03.781Z,4.25
2022-08-29T22:43:30.008Z,5.85
2022-08-29T22:45:56.264Z,5.43
2022-08-29T22:48:22.483Z,6.38
2022-08-29T22:50:57.930Z,2.42
2022-08-29T22:53:24.807Z,3.03
2022-08-29T22:55:51.221Z,6.18
2022-08-29T22:58:17.467Z,4.20
2022-08-29T23:00:43.702Z,3.45
2022-08-29T23:03:10.002Z,3.92
2022-08-29T23:05:36.327Z,3.47
2022-08-29T23:08:02.565Z,3.40
2022-08-29T23:10:28.875Z,3.15
2022-08-29T23:12:55.342Z,7.65
2022-08-29T23:15:21.590Z,4.22
2022-08-29T23:17:47.822Z,6.68
2022-08-29T23:20:14.073Z,4.38
2022-08-29T23:22:42.851Z,4.90
2022-08-29T23:25:09.433Z,4.20
2022-08-29T23:27:35.674Z,4.78
2022-08-29T23:30:01.925Z,3.65
2022-08-29T23:32:28.157Z,7.68
2022-08-29T23:34:54.384Z,5.63
2022-08-29T23:37:20.691Z,5.13
2022-08-29T23:39:47.284Z,4.32
2022-08-29T23:42:13.509Z,3.75
2022-08-29T23:44:39.754Z,4.65
2022-08-29T23:47:05.967Z,4.28
2022-08-29T23:49:34.852Z,6.35
2022-08-29T23:52:01.109Z,4.55
2022-08-29T23:54:27.364Z,5.97
2022-08-29T23:56:53.616Z,2.50
2022-08-29T23:59:19.879Z,4.47
